Time;durP1;ratioP1;P1;durP2;ratioP2;P2;SDS_P1;SDS_P2;PMS_P1;PMS_P2;Temp;Humidity;BMP_temperature;BMP_pressure;BME280_temperature;BME280_humidity;BME280_pressure;Samples;Min_cycle;Max_cycle;Signal;HPM_P1;HPM_P2
2023/11/11 00:01:27;;;;;;;10.30;2.93;;;;;6.70;99632.00;;;;10316695;28;20867;-71
2023/11/11 00:06:28;;;;;;;6.47;2.90;;;;;6.80;99640.00;;;;10325119;28;20864;-70
2023/11/11 00:11:29;;;;;;;10.00;2.13;;;;;7.00;99646.00;;;;10293663;28;20231;-71
2023/11/11 00:16:31;;;;;;;6.93;2.60;;;;;7.10;99649.00;;;;10304470;28;20781;-71
2023/11/11 00:21:38;;;;;;;6.53;2.20;;;;;7.00;99659.00;;;;10314038;28;20235;-71
2023/11/11 00:26:40;;;;;;;9.27;2.37;;;;;7.00;99653.00;;;;10318547;28;20228;-71
2023/11/11 00:31:45;;;;;;;9.57;2.70;;;;;7.00;99659.00;;;;10305427;28;20235;-70
2023/11/11 00:36:48;;;;;;;10.23;2.50;;;;;6.90;99661.00;;;;10292748;28;20219;-71
2023/11/11 00:41:49;;;;;;;9.47;2.50;;;;;6.80;99665.00;;;;10312513;28;20795;-70
2023/11/11 00:46:51;;;;;;;8.53;2.70;;;;;6.80;99675.00;;;;10308623;28;20287;-71
2023/11/11 00:51:52;;;;;;;12.73;3.33;;;;;6.90;99675.00;;;;10309862;28;20323;-71
2023/11/11 00:56:53;;;;;;;12.87;3.30;;;;;7.00;99686.00;;;;10310212;28;20413;-71
2023/11/11 01:01:54;;;;;;;17.20;3.87;;;;;7.00;99706.00;;;;10313201;28;20552;-71
2023/11/11 01:06:55;;;;;;;7.03;2.80;;;;;7.10;99703.00;;;;10321785;28;20298;-72
2023/11/11 01:11:57;;;;;;;9.13;2.97;;;;;7.00;99716.00;;;;10310981;28;21014;-71
2023/11/11 01:16:58;;;;;;;11.90;3.23;;;;;6.90;99723.00;;;;10297946;28;20673;-71
2023/11/11 01:21:59;;;;;;;13.43;3.63;;;;;6.70;99724.00;;;;10321410;28;20227;-71
2023/11/11 01:27:01;;;;;;;12.13;4.67;;;;;6.50;99720.00;;;;10309001;28;20669;-71
2023/11/11 01:32:04;;;;;;;8.93;4.77;;;;;6.40;99715.00;;;;10293186;28;20274;-71
2023/11/11 01:37:07;;;;;;;10.63;4.20;;;;;6.30;99716.00;;;;10322547;28;20220;-71
2023/11/11 01:42:09;;;;;;;16.67;4.80;;;;;6.30;99728.00;;;;10322341;28;20863;-71
2023/11/11 01:47:10;;;;;;;15.33;5.20;;;;;6.20;99722.00;;;;10323439;28;20718;-71
2023/11/11 01:52:12;;;;;;;10.63;4.37;;;;;6.20;99720.00;;;;10315869;28;20224;-71
2023/11/11 01:57:14;;;;;;;13.53;4.57;;;;;6.00;99728.00;;;;10308884;28;20231;-72
2023/11/11 02:02:15;;;;;;;15.27;5.00;;;;;5.90;99742.00;;;;10313676;28;20226;-71
2023/11/11 02:07:16;;;;;;;17.00;5.77;;;;;5.80;99742.00;;;;10309697;28;20570;-72
2023/11/11 02:12:18;;;;;;;16.57;6.17;;;;;5.70;99738.00;;;;10317967;28;20458;-72
2023/11/11 02:17:19;;;;;;;11.00;6.00;;;;;5.70;99750.00;;;;10298159;28;20228;-72
2023/11/11 02:22:20;;;;;;;18.73;7.03;;;;;5.80;99753.00;;;;10298894;28;20314;-72
2023/11/11 02:27:21;;;;;;;14.27;6.93;;;;;5.80;99754.00;;;;10317264;28;20224;-72
2023/11/11 02:32:22;;;;;;;17.20;6.17;;;;;5.80;99763.00;;;;10314452;28;20282;-72
2023/11/11 02:37:24;;;;;;;13.20;5.93;;;;;5.70;99762.00;;;;10320688;28;20303;-72
2023/11/11 02:42:26;;;;;;;22.73;7.30;;;;;5.70;99764.00;;;;10330872;28;20343;-72
2023/11/11 02:47:27;;;;;;;16.50;7.53;;;;;5.70;99773.00;;;;10327266;28;20215;-72
2023/11/11 02:52:28;;;;;;;14.23;8.03;;;;;5.70;99775.00;;;;10315009;28;20285;-72
2023/11/11 02:57:29;;;;;;;20.87;10.13;;;;;5.70;99791.00;;;;10317731;28;20634;-72
2023/11/11 03:02:31;;;;;;;12.90;8.83;;;;;5.70;99794.00;;;;10306401;28;20380;-72
2023/11/11 03:07:32;;;;;;;20.53;10.17;;;;;5.60;99811.00;;;;10311286;28;20226;-72
2023/11/11 03:12:34;;;;;;;20.10;10.30;;;;;5.60;99813.00;;;;10319857;28;20937;-72
2023/11/11 03:17:35;;;;;;;22.73;10.37;;;;;5.50;99822.00;;;;10322486;28;20219;-72
2023/11/11 03:22:37;;;;;;;19.80;10.83;;;;;5.60;99829.00;;;;10313489;28;20247;-72
2023/11/11 03:27:38;;;;;;;27.83;13.40;;;;;5.60;99833.00;;;;10312294;28;20319;-73
2023/11/11 03:32:41;;;;;;;25.57;13.07;;;;;5.60;99833.00;;;;10314819;28;20593;-72
2023/11/11 03:37:42;;;;;;;28.67;14.67;;;;;5.60;99826.00;;;;10322088;28;20223;-72
2023/11/11 03:42:43;;;;;;;22.97;14.27;;;;;5.60;99831.00;;;;10331459;28;20228;-72
2023/11/11 03:47:44;;;;;;;26.47;13.90;;;;;5.50;99844.00;;;;10332062;28;20259;-72
2023/11/11 03:52:46;;;;;;;27.37;14.57;;;;;5.50;99839.00;;;;10314129;28;20224;-72
2023/11/11 03:57:47;;;;;;;25.50;15.13;;;;;5.50;99841.00;;;;10315079;28;20228;-72
2023/11/11 04:02:48;;;;;;;26.17;13.73;;;;;5.40;99832.00;;;;10313660;28;20216;-72
2023/11/11 04:07:49;;;;;;;25.57;14.40;;;;;5.30;99844.00;;;;10320236;28;20736;-72
2023/11/11 04:12:50;;;;;;;24.57;14.50;;;;;5.30;99841.00;;;;10319921;28;20223;-72
2023/11/11 04:17:51;;;;;;;28.70;14.97;;;;;5.20;99847.00;;;;10314163;28;20224;-72
2023/11/11 04:22:52;;;;;;;30.53;15.87;;;;;5.10;99850.00;;;;10313998;28;20585;-72
2023/11/11 04:27:53;;;;;;;28.70;15.10;;;;;5.10;99844.00;;;;10317944;28;20228;-70
2023/11/11 04:32:54;;;;;;;26.87;14.23;;;;;5.00;99840.00;;;;10315612;28;20334;-71
2023/11/11 04:37:56;;;;;;;26.97;14.83;;;;;4.90;99853.00;;;;10310075;28;20273;-70
2023/11/11 04:42:57;;;;;;;29.77;13.80;;;;;4.90;99863.00;;;;10318658;28;20281;-70
2023/11/11 04:47:58;;;;;;;26.77;13.37;;;;;4.80;99856.00;;;;10305962;28;20263;-70
2023/11/11 04:52:59;;;;;;;24.90;13.17;;;;;4.80;99862.00;;;;10310357;28;20231;-70
2023/11/11 04:58:01;;;;;;;21.47;11.30;;;;;4.80;99868.00;;;;10308400;28;20227;-71
2023/11/11 05:03:02;;;;;;;27.80;13.87;;;;;4.70;99876.00;;;;10313901;28;20231;-70
2023/11/11 05:08:04;;;;;;;29.03;13.40;;;;;4.70;99878.00;;;;10303656;28;20889;-70
2023/11/11 05:13:08;;;;;;;27.63;13.33;;;;;4.70;99886.00;;;;10335033;28;20226;-69
2023/11/11 05:18:09;;;;;;;24.93;11.73;;;;;4.60;99881.00;;;;10311394;28;20211;-70
2023/11/11 05:23:11;;;;;;;18.80;11.63;;;;;4.50;99889.00;;;;10298863;28;20235;-70
2023/11/11 05:28:13;;;;;;;23.93;12.20;;;;;4.50;99886.00;;;;10306949;28;20229;-70
2023/11/11 05:33:14;;;;;;;21.17;11.83;;;;;4.50;99894.00;;;;10305025;28;20593;-72
2023/11/11 05:38:15;;;;;;;25.10;12.90;;;;;4.50;99906.00;;;;10311498;28;20657;-72
2023/11/11 05:43:16;;;;;;;25.77;13.63;;;;;4.60;99895.00;;;;10328041;28;20694;-73
2023/11/11 05:48:18;;;;;;;24.97;12.23;;;;;4.60;99899.00;;;;10312558;28;20293;-72
2023/11/11 05:53:20;;;;;;;21.83;11.83;;;;;4.50;99896.00;;;;10316881;28;20232;-72
2023/11/11 05:58:21;;;;;;;24.10;13.23;;;;;4.50;99904.00;;;;10324963;28;20260;-72
2023/11/11 06:03:22;;;;;;;25.83;12.60;;;;;4.50;99908.00;;;;10324348;28;20235;-71
2023/11/11 06:08:23;;;;;;;26.77;12.50;;;;;4.50;99908.00;;;;10312283;28;20228;-72
2023/11/11 06:13:24;;;;;;;29.83;14.80;;;;;4.40;99916.00;;;;10316803;28;20243;-72
2023/11/11 06:18:25;;;;;;;31.57;17.47;;;;;4.40;99925.00;;;;10322437;28;21023;-72
2023/11/11 06:23:27;;;;;;;32.07;17.40;;;;;4.40;99924.00;;;;10319054;28;20731;-72
2023/11/11 06:28:30;;;;;;;25.77;13.00;;;;;4.40;99936.00;;;;10332122;28;20759;-72
2023/11/11 06:33:32;;;;;;;28.87;14.03;;;;;4.40;99936.00;;;;10326561;28;20226;-72
2023/11/11 06:38:33;;;;;;;30.67;13.57;;;;;4.40;99957.00;;;;10313985;28;20319;-72
2023/11/11 06:43:34;;;;;;;27.00;12.50;;;;;4.40;99959.00;;;;10320754;28;20307;-71
2023/11/11 06:48:35;;;;;;;44.83;26.40;;;;;4.50;99968.00;;;;10328381;28;20306;-71
2023/11/11 06:53:38;;;;;;;31.60;16.27;;;;;4.60;99973.00;;;;10316423;28;20239;-71
2023/11/11 06:58:40;;;;;;;31.20;14.70;;;;;4.80;99980.00;;;;10295698;28;20238;-71
2023/11/11 07:03:41;;;;;;;29.73;13.57;;;;;4.90;99985.00;;;;10306861;28;20311;-71
2023/11/11 07:08:42;;;;;;;28.57;13.90;;;;;5.00;99982.00;;;;10299375;28;20227;-71
2023/11/11 07:13:46;;;;;;;23.53;11.97;;;;;5.10;99992.00;;;;10319157;28;20838;-71
2023/11/11 07:18:48;;;;;;;23.03;11.23;;;;;5.00;100010.00;;;;10314578;28;20585;-71
2023/11/11 07:23:52;;;;;;;27.13;10.53;;;;;5.10;100007.00;;;;10322998;28;20640;-71
2023/11/11 07:28:53;;;;;;;27.70;11.70;;;;;5.20;100010.00;;;;10310204;28;20224;-70
2023/11/11 07:33:54;;;;;;;26.27;11.47;;;;;5.30;100032.00;;;;10303197;28;20220;-70
2023/11/11 07:38:56;;;;;;;26.83;11.47;;;;;5.40;100026.00;;;;10307646;28;20346;-70
2023/11/11 07:44:04;;;;;;;26.00;11.00;;;;;5.60;100024.00;;;;10300793;28;20764;-71
2023/11/11 07:49:06;;;;;;;20.47;10.40;;;;;5.80;100031.00;;;;10319921;28;20251;-71
2023/11/11 07:54:07;;;;;;;27.47;10.57;;;;;5.90;100034.00;;;;10314949;28;20335;-72
2023/11/11 07:59:08;;;;;;;22.70;9.93;;;;;6.10;100040.00;;;;10308994;28;20223;-72
2023/11/11 08:04:10;;;;;;;20.97;10.17;;;;;6.20;100040.00;;;;10313451;28;20251;-72
2023/11/11 08:09:11;;;;;;;22.87;10.03;;;;;6.30;100039.00;;;;10310492;28;20226;-72
2023/11/11 08:14:13;;;;;;;20.10;10.03;;;;;6.40;100044.00;;;;10316111;28;21021;-72
2023/11/11 08:19:14;;;;;;;24.93;10.13;;;;;6.60;100041.00;;;;10292832;28;20228;-72
2023/11/11 08:24:15;;;;;;;23.40;9.90;;;;;6.80;100054.00;;;;10305373;28;20255;-72
2023/11/11 08:29:16;;;;;;;15.40;9.63;;;;;7.10;100062.00;;;;10296676;28;20295;-72
2023/11/11 08:34:17;;;;;;;27.63;11.63;;;;;7.70;100050.00;;;;10308840;28;20358;-72
2023/11/11 08:39:18;;;;;;;15.17;8.37;;;;;8.20;100044.00;;;;10311844;28;20220;-71
2023/11/11 08:44:19;;;;;;;12.70;7.03;;;;;7.90;100033.00;;;;10295753;28;21021;-72
2023/11/11 08:49:21;;;;;;;13.27;7.53;;;;;7.90;100051.00;;;;10324713;28;21345;-72
2023/11/11 08:54:22;;;;;;;13.00;6.70;;;;;7.80;100058.00;;;;10311164;28;20718;-72
2023/11/11 08:59:23;;;;;;;14.83;6.57;;;;;7.70;100058.00;;;;10312182;28;20664;-72
2023/11/11 09:04:24;;;;;;;15.03;6.57;;;;;7.60;100086.00;;;;10314833;28;20230;-77
2023/11/11 09:09:25;;;;;;;14.53;6.93;;;;;7.30;100073.00;;;;10312087;28;20232;-76
2023/11/11 09:14:27;;;;;;;12.30;6.70;;;;;7.30;100070.00;;;;10297096;28;20235;-76
2023/11/11 09:19:31;;;;;;;12.30;7.27;;;;;7.10;100063.00;;;;10322117;28;20289;-75
2023/11/11 09:24:32;;;;;;;16.60;7.03;;;;;7.00;100061.00;;;;10328418;28;20231;-76
2023/11/11 09:29:33;;;;;;;17.17;7.67;;;;;7.40;100077.00;;;;10326090;28;20251;-76
2023/11/11 09:34:34;;;;;;;14.97;7.60;;;;;7.50;100066.00;;;;10336473;28;20219;-77
2023/11/11 09:39:35;;;;;;;19.50;10.73;;;;;7.40;100077.00;;;;10337537;28;20314;-76
2023/11/11 09:44:39;;;;;;;24.70;15.40;;;;;8.10;100092.00;;;;10299490;28;20238;-76
2023/11/11 09:49:43;;;;;;;12.67;7.03;;;;;8.70;100099.00;;;;10317445;28;20238;-76
2023/11/11 09:54:46;;;;;;;16.73;6.37;;;;;9.10;100099.00;;;;10300941;28;20247;-76
2023/11/11 09:59:50;;;;;;;13.60;6.63;;;;;9.90;100102.00;;;;10324404;28;20689;-76
2023/11/11 10:04:52;;;;;;;9.70;4.73;;;;;9.70;100095.00;;;;10321176;28;20596;-77
2023/11/11 10:09:55;;;;;;;8.90;5.13;;;;;9.60;100092.00;;;;10324954;28;20255;-77
2023/11/11 10:15:02;;;;;;;10.67;4.80;;;;;9.50;100097.00;;;;10335362;28;20327;-70
2023/11/11 10:20:10;;;;;;;5.80;3.37;;;;;8.90;100095.00;;;;10315571;28;20232;-71
2023/11/11 10:25:17;;;;;;;11.17;5.23;;;;;8.90;100107.00;;;;10320614;28;20665;-71
2023/11/11 10:30:20;;;;;;;14.87;7.00;;;;;8.60;100102.00;;;;10334344;28;20953;-71
2023/11/11 10:35:24;;;;;;;12.57;8.90;;;;;9.90;100110.00;;;;10313662;28;20303;-71
2023/11/11 10:40:25;;;;;;;9.33;6.70;;;;;9.60;100114.00;;;;10313093;28;20303;-71
2023/11/11 10:45:27;;;;;;;7.97;5.90;;;;;9.40;100123.00;;;;10336168;28;20227;-70
2023/11/11 10:50:30;;;;;;;16.70;6.90;;;;;9.10;100116.00;;;;10320964;28;20227;-71
2023/11/11 10:55:33;;;;;;;10.87;6.10;;;;;8.70;100122.00;;;;10310921;28;20224;-71
2023/11/11 11:00:36;;;;;;;10.20;5.37;;;;;8.50;100112.00;;;;10313114;28;20703;-71
2023/11/11 11:05:55;;;;;;;8.93;5.37;;;;;8.60;100124.00;;;;10295144;28;20228;-71
2023/11/11 11:11:14;;;;;;;7.33;4.47;;;;;8.20;100125.00;;;;10311094;28;20243;-71
2023/11/11 11:16:17;;;;;;;5.63;3.47;;;;;8.10;100117.00;;;;10314811;28;20957;-71
2023/11/11 11:21:18;;;;;;;4.47;2.00;;;;;8.00;100118.00;;;;10318615;28;20258;-70
2023/11/11 11:26:28;;;;;;;1.90;1.20;;;;;8.50;100118.00;;;;10316466;28;20248;-70
2023/11/11 11:32:07;;;;;;;2.50;1.23;;;;;8.60;100120.00;;;;10315397;28;20950;-70
2023/11/11 11:37:11;;;;;;;2.97;1.47;;;;;8.40;100115.00;;;;10309060;28;20216;-71
2023/11/11 11:42:20;;;;;;;6.63;3.20;;;;;8.40;100113.00;;;;10314721;28;20223;-70
2023/11/11 11:47:24;;;;;;;6.50;4.80;;;;;8.40;100111.00;;;;10314349;28;20228;-70
2023/11/11 11:52:25;;;;;;;14.30;7.53;;;;;9.00;100120.00;;;;10322424;28;20708;-70
2023/11/11 11:57:27;;;;;;;10.60;6.43;;;;;9.60;100121.00;;;;10316289;28;20708;-71
2023/11/11 12:02:32;;;;;;;12.97;6.27;;;;;9.80;100118.00;;;;10332736;28;20669;-71
2023/11/11 12:07:37;;;;;;;10.93;6.30;;;;;9.70;100112.00;;;;10307444;28;20224;-71
2023/11/11 12:12:38;;;;;;;14.50;5.60;;;;;9.50;100113.00;;;;10315464;28;20231;-70
2023/11/11 12:17:40;;;;;;;9.20;5.30;;;;;9.20;100121.00;;;;10311158;28;20314;-71
2023/11/11 12:22:49;;;;;;;11.30;5.97;;;;;8.90;100106.00;;;;10306183;28;20242;-71
2023/11/11 12:27:51;;;;;;;9.93;5.10;;;;;8.70;100107.00;;;;10329057;28;20281;-71
2023/11/11 12:33:03;;;;;;;10.60;4.93;;;;;8.50;100115.00;;;;10310524;28;20246;-70
2023/11/11 12:38:24;;;;;;;8.30;5.83;;;;;8.50;100114.00;;;;10316491;28;20239;-71
2023/11/11 12:43:29;;;;;;;12.20;6.00;;;;;8.40;100129.00;;;;10321641;28;20227;-72
2023/11/11 12:48:31;;;;;;;14.13;6.50;;;;;8.50;100119.00;;;;10311518;28;20578;-71
2023/11/11 12:53:42;;;;;;;11.90;5.13;;;;;8.90;100126.00;;;;10290536;28;20258;-71
2023/11/11 12:58:43;;;;;;;6.53;3.27;;;;;9.10;100145.00;;;;10310864;28;20224;-71
2023/11/11 13:03:44;;;;;;;5.70;3.23;;;;;8.90;100136.00;;;;10313369;28;20370;-72
2023/11/11 13:08:54;;;;;;;3.50;2.40;;;;;8.70;100144.00;;;;10315848;28;20892;-72
2023/11/11 13:13:55;;;;;;;2.40;1.73;;;;;8.60;100155.00;;;;10305990;28;20219;-72
2023/11/11 13:18:58;;;;;;;4.50;2.97;;;;;8.30;100133.00;;;;10312279;28;20228;-71
2023/11/11 13:23:59;;;;;;;3.23;2.20;;;;;8.20;100147.00;;;;10302923;28;20212;-72
2023/11/11 13:29:01;;;;;;;4.73;3.30;;;;;8.00;100142.00;;;;10310225;28;20258;-71
2023/11/11 13:34:02;;;;;;;3.37;2.37;;;;;8.00;100142.00;;;;10300186;28;20227;-72
2023/11/11 13:39:07;;;;;;;4.37;3.97;;;;;8.00;100144.00;;;;10290622;28;21016;-71
2023/11/11 13:44:09;;;;;;;8.77;4.80;;;;;8.10;100148.00;;;;10306403;28;20709;-71
2023/11/11 13:49:10;;;;;;;8.03;3.67;;;;;8.10;100140.00;;;;10313311;28;20271;-71
2023/11/11 13:54:11;;;;;;;8.07;3.23;;;;;8.20;100135.00;;;;10306549;28;20224;-71
2023/11/11 13:59:12;;;;;;;5.77;3.47;;;;;8.20;100141.00;;;;10317128;28;20281;-72
2023/11/11 14:04:15;;;;;;;4.30;3.17;;;;;8.30;100140.00;;;;10321098;28;20805;-71
2023/11/11 14:09:16;;;;;;;14.80;7.87;;;;;8.50;100141.00;;;;10315711;28;20212;-71
2023/11/11 14:14:18;;;;;;;18.53;13.00;;;;;10.10;100142.00;;;;10308540;28;20905;-71
2023/11/11 14:19:19;;;;;;;6.90;5.47;;;;;9.80;100178.00;;;;10316213;28;20330;-71
2023/11/11 14:24:21;;;;;;;15.97;10.73;;;;;8.80;100165.00;;;;10320069;28;20224;-71
2023/11/11 14:29:22;;;;;;;9.07;5.43;;;;;8.40;100147.00;;;;10320883;28;20235;-72
2023/11/11 14:34:23;;;;;;;6.27;4.00;;;;;8.20;100154.00;;;;10315319;28;20212;-72
2023/11/11 14:39:25;;;;;;;7.10;4.90;;;;;8.00;100151.00;;;;10317250;28;20863;-71
2023/11/11 14:44:26;;;;;;;7.67;4.60;;;;;7.80;100162.00;;;;10303926;28;20295;-72
2023/11/11 14:49:29;;;;;;;5.80;4.87;;;;;7.80;100168.00;;;;10324669;28;20224;-71
2023/11/11 14:54:30;;;;;;;7.23;5.17;;;;;7.80;100165.00;;;;10319663;28;20897;-70
2023/11/11 14:59:32;;;;;;;8.50;5.13;;;;;7.70;100173.00;;;;10323457;28;20318;-70
2023/11/11 15:04:34;;;;;;;9.20;6.60;;;;;7.60;100175.00;;;;10313078;28;20220;-70
2023/11/11 15:09:35;;;;;;;37.30;25.27;;;;;7.70;100181.00;;;;10309076;28;20247;-70
2023/11/11 15:14:36;;;;;;;31.27;24.63;;;;;7.70;100180.00;;;;10322609;28;20751;-69
2023/11/11 15:19:38;;;;;;;11.03;6.77;;;;;7.60;100187.00;;;;10309011;28;20874;-70
2023/11/11 15:24:39;;;;;;;11.63;5.90;;;;;7.50;100187.00;;;;10317576;28;20251;-71
2023/11/11 15:29:41;;;;;;;9.50;5.33;;;;;7.40;100179.00;;;;10317392;28;20307;-71
2023/11/11 15:34:42;;;;;;;14.67;5.67;;;;;7.30;100187.00;;;;10332406;28;20224;-69
2023/11/11 15:39:43;;;;;;;8.73;5.37;;;;;7.30;100190.00;;;;10331791;28;20305;-71
2023/11/11 15:44:47;;;;;;;11.90;5.40;;;;;7.10;100185.00;;;;10324137;28;20563;-70
2023/11/11 15:49:48;;;;;;;8.10;4.90;;;;;7.00;100185.00;;;;10318265;28;20726;-71
2023/11/11 15:54:49;;;;;;;17.17;6.07;;;;;6.90;100195.00;;;;10315082;28;20231;-71
2023/11/11 15:59:51;;;;;;;8.83;5.10;;;;;6.80;100204.00;;;;10312311;28;20238;-71
2023/11/11 16:04:52;;;;;;;13.03;6.70;;;;;6.70;100202.00;;;;10308842;28;20224;-72
2023/11/11 16:09:53;;;;;;;18.93;10.50;;;;;6.50;100194.00;;;;10293389;28;20220;-72
2023/11/11 16:14:54;;;;;;;15.50;10.00;;;;;6.50;100200.00;;;;10295255;28;20232;-72
2023/11/11 16:19:58;;;;;;;16.73;12.33;;;;;6.50;100214.00;;;;10297416;28;20223;-72
2023/11/11 16:25:00;;;;;;;23.87;18.60;;;;;6.40;100211.00;;;;10290834;28;20227;-71
2023/11/11 16:30:01;;;;;;;20.30;13.67;;;;;6.20;100208.00;;;;10312569;28;20223;-72
2023/11/11 16:35:06;;;;;;;12.43;7.03;;;;;6.10;100202.00;;;;10314331;28;20219;-72
2023/11/11 16:40:12;;;;;;;13.40;7.80;;;;;6.00;100204.00;;;;10315423;28;20407;-72
2023/11/11 16:45:13;;;;;;;13.23;7.97;;;;;5.90;100210.00;;;;10318912;28;20275;-72
2023/11/11 16:50:16;;;;;;;9.00;7.37;;;;;5.70;100219.00;;;;10313083;28;20945;-72
2023/11/11 16:55:17;;;;;;;10.90;7.47;;;;;5.70;100218.00;;;;10312283;28;20919;-72
2023/11/11 17:00:19;;;;;;;14.07;7.93;;;;;5.60;100219.00;;;;10325275;28;20234;-72
2023/11/11 17:05:22;;;;;;;11.90;7.77;;;;;5.50;100218.00;;;;10319597;28;20220;-72
2023/11/11 17:10:23;;;;;;;10.43;7.00;;;;;5.40;100218.00;;;;10319378;28;20220;-72
2023/11/11 17:15:26;;;;;;;14.40;8.87;;;;;5.30;100220.00;;;;10310868;28;20232;-72
2023/11/11 17:20:27;;;;;;;9.37;7.43;;;;;5.20;100218.00;;;;10312230;28;20607;-71
2023/11/11 17:25:28;;;;;;;15.27;11.17;;;;;5.10;100217.00;;;;10309523;28;20782;-72
2023/11/11 17:30:29;;;;;;;7.60;6.00;;;;;5.10;100218.00;;;;10311859;28;20362;-72
2023/11/11 17:35:32;;;;;;;11.00;6.37;;;;;5.10;100214.00;;;;10331351;28;20234;-71
2023/11/11 17:40:33;;;;;;;8.03;6.57;;;;;5.30;100218.00;;;;10317612;28;20224;-71
2023/11/11 17:45:35;;;;;;;14.97;8.03;;;;;5.40;100226.00;;;;10314340;28;20264;-71
2023/11/11 17:50:36;;;;;;;10.93;7.03;;;;;5.50;100229.00;;;;10296261;28;21245;-72
2023/11/11 17:55:37;;;;;;;8.47;6.53;;;;;5.60;100231.00;;;;10330747;28;20235;-72
2023/11/11 18:00:38;;;;;;;14.77;10.10;;;;;5.60;100229.00;;;;10325360;28;20310;-72
2023/11/11 18:05:39;;;;;;;24.07;19.87;;;;;5.60;100241.00;;;;10316428;28;20315;-72
2023/11/11 18:10:40;;;;;;;16.77;9.47;;;;;5.60;100242.00;;;;10301500;28;20439;-72
2023/11/11 18:15:41;;;;;;;17.13;8.40;;;;;5.80;100241.00;;;;10323634;28;20235;-71
2023/11/11 18:20:42;;;;;;;16.23;10.93;;;;;5.90;100241.00;;;;10317388;28;20319;-72
2023/11/11 18:25:44;;;;;;;18.93;11.87;;;;;6.00;100237.00;;;;10324796;28;20383;-71
2023/11/11 18:30:46;;;;;;;14.87;10.83;;;;;6.00;100236.00;;;;10322602;28;20247;-71
2023/11/11 18:35:47;;;;;;;17.90;11.93;;;;;6.00;100243.00;;;;10315546;28;20219;-71
2023/11/11 18:40:49;;;;;;;14.83;10.33;;;;;5.80;100250.00;;;;10324854;28;20234;-71
2023/11/11 18:45:50;;;;;;;14.00;10.60;;;;;5.70;100245.00;;;;10328695;28;20224;-71
2023/11/11 18:50:52;;;;;;;16.13;11.33;;;;;5.60;100241.00;;;;10324964;28;20256;-71
2023/11/11 18:55:53;;;;;;;17.47;11.77;;;;;5.50;100240.00;;;;10325200;28;20311;-71
2023/11/11 19:00:54;;;;;;;14.23;10.80;;;;;5.40;100233.00;;;;10318684;28;20902;-71
2023/11/11 19:05:56;;;;;;;16.53;11.07;;;;;5.40;100238.00;;;;10319796;28;20212;-71
2023/11/11 19:10:57;;;;;;;14.77;11.47;;;;;5.50;100243.00;;;;10309110;28;20226;-71
2023/11/11 19:15:58;;;;;;;22.60;12.40;;;;;5.60;100241.00;;;;10314036;28;20286;-71
2023/11/11 19:20:59;;;;;;;17.50;12.77;;;;;5.70;100244.00;;;;10317519;28;20228;-71
2023/11/11 19:26:04;;;;;;;21.77;11.90;;;;;5.80;100250.00;;;;10307347;28;20588;-71
2023/11/11 19:31:05;;;;;;;17.03;11.70;;;;;5.90;100247.00;;;;10320250;28;20219;-70
2023/11/11 19:36:07;;;;;;;16.07;11.43;;;;;6.00;100238.00;;;;10317971;28;20289;-70
2023/11/11 19:41:09;;;;;;;19.47;13.20;;;;;6.00;100236.00;;;;10313875;28;20246;-70
2023/11/11 19:46:14;;;;;;;19.50;12.10;;;;;6.00;100246.00;;;;10318894;28;20219;-70
2023/11/11 19:51:23;;;;;;;17.17;12.47;;;;;6.10;100242.00;;;;10313730;28;21240;-72
2023/11/11 19:56:24;;;;;;;18.83;12.30;;;;;6.10;100235.00;;;;10319250;28;20276;-71
2023/11/11 20:01:26;;;;;;;20.47;12.97;;;;;6.10;100232.00;;;;10322627;28;20235;-70
2023/11/11 20:06:27;;;;;;;17.53;13.23;;;;;6.10;100231.00;;;;10317539;28;20828;-70
2023/11/11 20:11:28;;;;;;;19.30;13.97;;;;;6.10;100225.00;;;;10323744;28;20290;-72
2023/11/11 20:16:29;;;;;;;22.47;13.83;;;;;6.10;100225.00;;;;10298893;28;20219;-70
2023/11/11 20:21:31;;;;;;;17.47;14.07;;;;;6.20;100226.00;;;;10317327;28;20231;-70
2023/11/11 20:26:32;;;;;;;23.70;15.77;;;;;6.20;100223.00;;;;10315118;28;20252;-70
2023/11/11 20:31:33;;;;;;;23.33;14.23;;;;;6.20;100222.00;;;;10319158;28;20233;-71
2023/11/11 20:36:37;;;;;;;22.77;14.63;;;;;6.30;100221.00;;;;10321014;28;20219;-71
2023/11/11 20:41:40;;;;;;;20.57;12.87;;;;;6.30;100205.00;;;;10323132;28;20805;-70
2023/11/11 20:46:41;;;;;;;20.13;11.20;;;;;6.30;100207.00;;;;10323091;28;20873;-71
2023/11/11 20:51:46;;;;;;;16.93;11.60;;;;;6.30;100200.00;;;;10325908;28;20223;-71
2023/11/11 20:56:47;;;;;;;16.13;10.63;;;;;6.20;100195.00;;;;10297111;28;20219;-72
2023/11/11 21:01:48;;;;;;;18.37;10.90;;;;;6.10;100196.00;;;;10290904;28;20216;-71
2023/11/11 21:06:49;;;;;;;17.10;11.63;;;;;6.00;100196.00;;;;10320279;28;20231;-71
2023/11/11 21:11:50;;;;;;;20.90;12.40;;;;;5.90;100183.00;;;;10315590;28;20357;-71
2023/11/11 21:16:52;;;;;;;21.30;12.30;;;;;5.80;100185.00;;;;10315173;28;20223;-71
2023/11/11 21:21:53;;;;;;;16.90;11.33;;;;;5.80;100180.00;;;;10322348;28;20234;-71
2023/11/11 21:26:54;;;;;;;14.30;11.40;;;;;5.70;100168.00;;;;10328966;28;20218;-71
2023/11/11 21:31:55;;;;;;;18.07;12.80;;;;;5.70;100154.00;;;;10303778;28;20250;-71
2023/11/11 21:36:57;;;;;;;17.37;12.47;;;;;5.50;100147.00;;;;10326209;28;20223;-71
2023/11/11 21:41:58;;;;;;;17.17;12.37;;;;;5.40;100144.00;;;;10324712;28;20238;-72
2023/11/11 21:46:59;;;;;;;16.93;11.97;;;;;5.20;100144.00;;;;10329326;28;20358;-71
2023/11/11 21:52:01;;;;;;;20.00;11.97;;;;;5.20;100143.00;;;;10328107;28;20639;-71
2023/11/11 21:57:02;;;;;;;19.87;12.27;;;;;5.10;100150.00;;;;10311804;28;20238;-70
2023/11/11 22:02:04;;;;;;;17.60;13.27;;;;;5.00;100136.00;;;;10315185;28;20310;-71
2023/11/11 22:07:05;;;;;;;17.07;12.33;;;;;5.00;100135.00;;;;10309114;28;20310;-71
2023/11/11 22:12:08;;;;;;;16.43;11.73;;;;;5.00;100138.00;;;;10326918;28;20310;-71
2023/11/11 22:17:09;;;;;;;15.30;10.83;;;;;5.00;100129.00;;;;10322489;28;20250;-71
2023/11/11 22:22:10;;;;;;;15.13;11.50;;;;;4.90;100125.00;;;;10330602;28;20223;-71
2023/11/11 22:27:11;;;;;;;18.60;12.27;;;;;4.80;100115.00;;;;10327897;28;20215;-71
2023/11/11 22:32:12;;;;;;;16.23;11.83;;;;;4.80;100100.00;;;;10318384;28;20223;-71
2023/11/11 22:37:14;;;;;;;19.37;12.07;;;;;4.80;100105.00;;;;10330309;28;20251;-71
2023/11/11 22:42:15;;;;;;;17.37;11.40;;;;;4.80;100101.00;;;;10318954;28;20731;-71
2023/11/11 22:47:16;;;;;;;15.67;11.07;;;;;4.80;100106.00;;;;10316604;28;20223;-71
2023/11/11 22:52:18;;;;;;;16.90;11.63;;;;;4.70;100095.00;;;;10317120;28;20220;-71
2023/11/11 22:57:19;;;;;;;18.80;11.83;;;;;4.60;100094.00;;;;10328688;28;20262;-71
2023/11/11 23:02:20;;;;;;;19.30;12.27;;;;;4.60;100081.00;;;;10317003;28;20363;-71
2023/11/11 23:07:21;;;;;;;17.60;12.50;;;;;4.60;100081.00;;;;10322965;28;20744;-72
2023/11/11 23:12:23;;;;;;;19.53;11.13;;;;;4.40;100077.00;;;;10326977;28;20744;-71
2023/11/11 23:17:24;;;;;;;19.17;11.83;;;;;4.30;100073.00;;;;10319815;28;20227;-71
2023/11/11 23:22:26;;;;;;;18.17;10.83;;;;;4.20;100083.00;;;;10321571;28;20254;-71
2023/11/11 23:27:28;;;;;;;16.10;10.30;;;;;4.00;100081.00;;;;10315275;28;20306;-71
2023/11/11 23:32:29;;;;;;;14.23;10.00;;;;;3.80;100080.00;;;;10310158;28;20243;-71
2023/11/11 23:37:30;;;;;;;19.37;10.63;;;;;3.70;100077.00;;;;10311127;28;20216;-71
2023/11/11 23:42:32;;;;;;;19.30;10.97;;;;;3.60;100069.00;;;;10314687;28;20227;-71
2023/11/11 23:47:33;;;;;;;21.70;12.43;;;;;3.60;100066.00;;;;10319605;28;20232;-71
2023/11/11 23:52:34;;;;;;;20.90;12.70;;;;;3.60;100055.00;;;;10314489;28;20748;-72
2023/11/11 23:57:35;;;;;;;27.17;13.03;;;;;3.60;100057.00;;;;10318135;28;20581;-72
